sensor_id;sensor_type;location;lat;lon;timestamp;P1;durP1;ratioP1;P2;durP2;ratioP2
36585;SDS011;22591;48.314;11.562;2022-07-21T00:00:40;7.45;;;4.22;;
36585;SDS011;22591;48.314;11.562;2022-07-21T00:03:06;7.60;;;4.47;;
36585;SDS011;22591;48.314;11.562;2022-07-21T00:05:31;4.68;;;4.25;;
36585;SDS011;22591;48.314;11.562;2022-07-21T00:07:57;4.55;;;4.25;;
36585;SDS011;22591;48.314;11.562;2022-07-21T00:10:23;4.60;;;4.30;;
36585;SDS011;22591;48.314;11.562;2022-07-21T00:12:50;5.90;;;5.40;;
36585;SDS011;22591;48.314;11.562;2022-07-21T00:15:17;6.10;;;5.35;;
36585;SDS011;22591;48.314;11.562;2022-07-21T00:17:44;5.85;;;5.40;;
36585;SDS011;22591;48.314;11.562;2022-07-21T00:20:11;5.80;;;5.18;;
36585;SDS011;22591;48.314;11.562;2022-07-21T00:22:38;5.88;;;5.47;;
36585;SDS011;22591;48.314;11.562;2022-07-21T00:25:04;5.53;;;5.03;;
36585;SDS011;22591;48.314;11.562;2022-07-21T00:27:31;4.93;;;4.55;;
36585;SDS011;22591;48.314;11.562;2022-07-21T00:29:58;6.63;;;5.25;;
36585;SDS011;22591;48.314;11.562;2022-07-21T00:32:23;5.32;;;4.93;;
36585;SDS011;22591;48.314;11.562;2022-07-21T00:34:49;6.10;;;5.25;;
36585;SDS011;22591;48.314;11.562;2022-07-21T00:37:14;7.82;;;5.38;;
36585;SDS011;22591;48.314;11.562;2022-07-21T00:39:40;5.80;;;5.40;;
36585;SDS011;22591;48.314;11.562;2022-07-21T00:42:06;6.10;;;5.40;;
36585;SDS011;22591;48.314;11.562;2022-07-21T00:44:31;5.20;;;4.90;;
36585;SDS011;22591;48.314;11.562;2022-07-21T00:46:57;5.60;;;5.20;;
36585;SDS011;22591;48.314;11.562;2022-07-21T00:49:23;5.32;;;4.95;;
36585;SDS011;22591;48.314;11.562;2022-07-21T00:51:50;5.88;;;5.30;;
36585;SDS011;22591;48.314;11.562;2022-07-21T00:54:16;5.47;;;5.07;;
36585;SDS011;22591;48.314;11.562;2022-07-21T00:56:43;7.95;;;5.00;;
36585;SDS011;22591;48.314;11.562;2022-07-21T00:59:10;8.02;;;5.90;;
36585;SDS011;22591;48.314;11.562;2022-07-21T01:01:36;5.85;;;5.28;;
36585;SDS011;22591;48.314;11.562;2022-07-21T01:04:02;5.95;;;5.45;;
36585;SDS011;22591;48.314;11.562;2022-07-21T01:06:27;7.45;;;5.50;;
36585;SDS011;22591;48.314;11.562;2022-07-21T01:08:53;6.40;;;5.68;;
36585;SDS011;22591;48.314;11.562;2022-07-21T01:11:20;8.13;;;5.70;;
36585;SDS011;22591;48.314;11.562;2022-07-21T01:13:46;7.80;;;5.15;;
36585;SDS011;22591;48.314;11.562;2022-07-21T01:16:13;5.47;;;4.70;;
36585;SDS011;22591;48.314;11.562;2022-07-21T01:18:39;5.40;;;5.00;;
36585;SDS011;22591;48.314;11.562;2022-07-21T01:21:39;5.40;;;4.90;;
36585;SDS011;22591;48.314;11.562;2022-07-21T01:24:02;6.47;;;5.28;;
36585;SDS011;22591;48.314;11.562;2022-07-21T01:26:28;5.35;;;4.95;;
36585;SDS011;22591;48.314;11.562;2022-07-21T01:28:55;5.90;;;4.85;;
36585;SDS011;22591;48.314;11.562;2022-07-21T01:31:21;8.65;;;4.72;;
36585;SDS011;22591;48.314;11.562;2022-07-21T01:33:47;5.68;;;5.28;;
36585;SDS011;22591;48.314;11.562;2022-07-21T01:36:13;5.22;;;4.72;;
36585;SDS011;22591;48.314;11.562;2022-07-21T01:38:39;5.95;;;5.15;;
36585;SDS011;22591;48.314;11.562;2022-07-21T01:41:23;8.55;;;5.55;;
36585;SDS011;22591;48.314;11.562;2022-07-21T01:46:21;6.07;;;5.60;;
36585;SDS011;22591;48.314;11.562;2022-07-21T01:48:46;6.05;;;5.57;;
36585;SDS011;22591;48.314;11.562;2022-07-21T01:51:12;6.22;;;5.68;;
36585;SDS011;22591;48.314;11.562;2022-07-21T01:53:38;5.65;;;5.15;;
36585;SDS011;22591;48.314;11.562;2022-07-21T01:56:04;6.93;;;6.43;;
36585;SDS011;22591;48.314;11.562;2022-07-21T01:58:31;7.10;;;6.60;;
36585;SDS011;22591;48.314;11.562;2022-07-21T02:00:57;7.30;;;6.70;;
36585;SDS011;22591;48.314;11.562;2022-07-21T02:03:22;7.28;;;6.57;;
36585;SDS011;22591;48.314;11.562;2022-07-21T02:05:48;8.18;;;7.45;;
36585;SDS011;22591;48.314;11.562;2022-07-21T02:08:13;8.05;;;7.30;;
36585;SDS011;22591;48.314;11.562;2022-07-21T02:10:39;8.30;;;7.50;;
36585;SDS011;22591;48.314;11.562;2022-07-21T02:13:05;8.18;;;7.47;;
36585;SDS011;22591;48.314;11.562;2022-07-21T02:15:30;8.57;;;7.63;;
36585;SDS011;22591;48.314;11.562;2022-07-21T02:17:57;7.22;;;6.70;;
36585;SDS011;22591;48.314;11.562;2022-07-21T02:20:23;7.68;;;7.10;;
36585;SDS011;22591;48.314;11.562;2022-07-21T02:22:49;7.32;;;6.70;;
36585;SDS011;22591;48.314;11.562;2022-07-21T02:25:15;7.80;;;6.97;;
36585;SDS011;22591;48.314;11.562;2022-07-21T02:27:44;8.55;;;7.75;;
36585;SDS011;22591;48.314;11.562;2022-07-21T02:30:11;7.53;;;6.82;;
36585;SDS011;22591;48.314;11.562;2022-07-21T02:32:38;7.93;;;7.07;;
36585;SDS011;22591;48.314;11.562;2022-07-21T02:35:04;10.73;;;7.35;;
36585;SDS011;22591;48.314;11.562;2022-07-21T02:37:30;8.10;;;7.45;;
36585;SDS011;22591;48.314;11.562;2022-07-21T02:39:56;7.60;;;7.10;;
36585;SDS011;22591;48.314;11.562;2022-07-21T02:42:21;9.80;;;7.35;;
36585;SDS011;22591;48.314;11.562;2022-07-21T02:44:47;8.30;;;7.60;;
36585;SDS011;22591;48.314;11.562;2022-07-21T02:47:13;9.15;;;7.68;;
36585;SDS011;22591;48.314;11.562;2022-07-21T02:49:38;8.18;;;7.20;;
36585;SDS011;22591;48.314;11.562;2022-07-21T02:52:04;8.10;;;7.35;;
36585;SDS011;22591;48.314;11.562;2022-07-21T02:54:30;9.23;;;8.38;;
36585;SDS011;22591;48.314;11.562;2022-07-21T02:56:55;8.68;;;7.88;;
36585;SDS011;22591;48.314;11.562;2022-07-21T02:59:21;8.77;;;7.82;;
36585;SDS011;22591;48.314;11.562;2022-07-21T03:01:47;8.15;;;7.45;;
36585;SDS011;22591;48.314;11.562;2022-07-21T03:04:12;8.25;;;7.47;;
36585;SDS011;22591;48.314;11.562;2022-07-21T03:06:38;7.55;;;6.95;;
36585;SDS011;22591;48.314;11.562;2022-07-21T03:09:04;8.50;;;7.35;;
36585;SDS011;22591;48.314;11.562;2022-07-21T03:11:30;7.25;;;6.55;;
36585;SDS011;22591;48.314;11.562;2022-07-21T03:13:56;8.13;;;7.43;;
36585;SDS011;22591;48.314;11.562;2022-07-21T03:16:22;8.25;;;7.50;;
36585;SDS011;22591;48.314;11.562;2022-07-21T03:18:47;7.95;;;7.35;;
36585;SDS011;22591;48.314;11.562;2022-07-21T03:21:13;7.43;;;6.80;;
36585;SDS011;22591;48.314;11.562;2022-07-21T03:23:39;10.27;;;8.10;;
36585;SDS011;22591;48.314;11.562;2022-07-21T03:26:04;9.40;;;8.23;;
36585;SDS011;22591;48.314;11.562;2022-07-21T03:28:30;9.52;;;8.60;;
36585;SDS011;22591;48.314;11.562;2022-07-21T03:30:56;7.82;;;7.13;;
36585;SDS011;22591;48.314;11.562;2022-07-21T03:33:21;8.95;;;7.63;;
36585;SDS011;22591;48.314;11.562;2022-07-21T03:35:47;8.75;;;8.05;;
36585;SDS011;22591;48.314;11.562;2022-07-21T03:38:13;9.70;;;8.20;;
36585;SDS011;22591;48.314;11.562;2022-07-21T03:40:38;9.05;;;8.25;;
36585;SDS011;22591;48.314;11.562;2022-07-21T03:43:05;8.90;;;8.20;;
36585;SDS011;22591;48.314;11.562;2022-07-21T03:45:32;10.90;;;7.97;;
36585;SDS011;22591;48.314;11.562;2022-07-21T03:47:59;8.80;;;8.10;;
36585;SDS011;22591;48.314;11.562;2022-07-21T03:50:27;9.38;;;8.50;;
36585;SDS011;22591;48.314;11.562;2022-07-21T03:52:53;9.35;;;8.57;;
36585;SDS011;22591;48.314;11.562;2022-07-21T03:55:18;9.45;;;8.55;;
36585;SDS011;22591;48.314;11.562;2022-07-21T03:57:46;9.18;;;8.55;;
36585;SDS011;22591;48.314;11.562;2022-07-21T04:00:15;10.27;;;9.27;;
36585;SDS011;22591;48.314;11.562;2022-07-21T04:03:01;10.05;;;9.23;;
36585;SDS011;22591;48.314;11.562;2022-07-21T04:05:28;11.32;;;10.43;;
36585;SDS011;22591;48.314;11.562;2022-07-21T04:07:54;11.60;;;10.00;;
36585;SDS011;22591;48.314;11.562;2022-07-21T04:10:22;11.48;;;10.40;;
36585;SDS011;22591;48.314;11.562;2022-07-21T04:12:49;12.23;;;11.23;;
36585;SDS011;22591;48.314;11.562;2022-07-21T04:15:15;13.13;;;12.07;;
36585;SDS011;22591;48.314;11.562;2022-07-21T04:17:42;12.57;;;11.50;;
36585;SDS011;22591;48.314;11.562;2022-07-21T04:20:08;14.15;;;12.63;;
36585;SDS011;22591;48.314;11.562;2022-07-21T04:22:35;14.93;;;12.77;;
36585;SDS011;22591;48.314;11.562;2022-07-21T04:25:02;14.13;;;13.00;;
36585;SDS011;22591;48.314;11.562;2022-07-21T04:27:29;13.95;;;12.73;;
36585;SDS011;22591;48.314;11.562;2022-07-21T04:29:55;14.70;;;12.73;;
36585;SDS011;22591;48.314;11.562;2022-07-21T04:32:21;14.52;;;13.15;;
36585;SDS011;22591;48.314;11.562;2022-07-21T04:34:46;15.57;;;14.00;;
36585;SDS011;22591;48.314;11.562;2022-07-21T04:37:12;16.05;;;14.50;;
36585;SDS011;22591;48.314;11.562;2022-07-21T04:39:38;13.82;;;12.57;;
36585;SDS011;22591;48.314;11.562;2022-07-21T04:42:03;15.00;;;13.43;;
36585;SDS011;22591;48.314;11.562;2022-07-21T04:44:29;15.20;;;13.73;;
36585;SDS011;22591;48.314;11.562;2022-07-21T04:46:54;15.35;;;13.88;;
36585;SDS011;22591;48.314;11.562;2022-07-21T04:49:20;15.95;;;14.35;;
36585;SDS011;22591;48.314;11.562;2022-07-21T04:51:46;15.52;;;14.05;;
36585;SDS011;22591;48.314;11.562;2022-07-21T04:54:11;15.85;;;14.25;;
36585;SDS011;22591;48.314;11.562;2022-07-21T04:56:40;16.42;;;14.95;;
36585;SDS011;22591;48.314;11.562;2022-07-21T04:59:07;16.75;;;15.23;;
36585;SDS011;22591;48.314;11.562;2022-07-21T05:01:33;15.20;;;13.90;;
36585;SDS011;22591;48.314;11.562;2022-07-21T05:03:58;16.55;;;14.95;;
36585;SDS011;22591;48.314;11.562;2022-07-21T05:06:24;16.95;;;15.27;;
36585;SDS011;22591;48.314;11.562;2022-07-21T05:08:50;16.50;;;15.10;;
36585;SDS011;22591;48.314;11.562;2022-07-21T05:11:16;16.95;;;15.43;;
36585;SDS011;22591;48.314;11.562;2022-07-21T05:13:41;18.15;;;15.10;;
36585;SDS011;22591;48.314;11.562;2022-07-21T05:16:07;16.83;;;15.05;;
36585;SDS011;22591;48.314;11.562;2022-07-21T05:18:32;18.75;;;14.50;;
36585;SDS011;22591;48.314;11.562;2022-07-21T05:20:58;17.05;;;15.40;;
36585;SDS011;22591;48.314;11.562;2022-07-21T05:23:24;17.50;;;15.18;;
36585;SDS011;22591;48.314;11.562;2022-07-21T05:25:49;15.50;;;14.10;;
36585;SDS011;22591;48.314;11.562;2022-07-21T05:28:15;17.20;;;15.63;;
36585;SDS011;22591;48.314;11.562;2022-07-21T05:30:40;16.63;;;15.05;;
36585;SDS011;22591;48.314;11.562;2022-07-21T05:33:06;16.80;;;15.23;;
36585;SDS011;22591;48.314;11.562;2022-07-21T05:35:31;16.17;;;14.77;;
36585;SDS011;22591;48.314;11.562;2022-07-21T05:37:57;16.90;;;15.00;;
36585;SDS011;22591;48.314;11.562;2022-07-21T05:40:23;16.05;;;14.60;;
36585;SDS011;22591;48.314;11.562;2022-07-21T05:42:48;16.42;;;14.73;;
36585;SDS011;22591;48.314;11.562;2022-07-21T05:45:14;16.45;;;14.95;;
36585;SDS011;22591;48.314;11.562;2022-07-21T05:47:40;16.85;;;15.25;;
36585;SDS011;22591;48.314;11.562;2022-07-21T05:50:07;15.80;;;14.38;;
36585;SDS011;22591;48.314;11.562;2022-07-21T05:52:33;15.13;;;13.80;;
36585;SDS011;22591;48.314;11.562;2022-07-21T05:54:59;17.13;;;15.38;;
36585;SDS011;22591;48.314;11.562;2022-07-21T05:57:25;15.60;;;14.25;;
36585;SDS011;22591;48.314;11.562;2022-07-21T05:59:51;14.73;;;13.32;;
36585;SDS011;22591;48.314;11.562;2022-07-21T06:02:16;15.40;;;14.07;;
36585;SDS011;22591;48.314;11.562;2022-07-21T06:04:42;17.80;;;15.30;;
36585;SDS011;22591;48.314;11.562;2022-07-21T06:07:08;14.88;;;13.52;;
36585;SDS011;22591;48.314;11.562;2022-07-21T06:09:33;16.05;;;13.93;;
36585;SDS011;22591;48.314;11.562;2022-07-21T06:11:59;14.98;;;13.35;;
36585;SDS011;22591;48.314;11.562;2022-07-21T06:14:24;14.20;;;12.90;;
36585;SDS011;22591;48.314;11.562;2022-07-21T06:16:50;15.90;;;13.65;;
36585;SDS011;22591;48.314;11.562;2022-07-21T06:19:16;15.65;;;13.90;;
36585;SDS011;22591;48.314;11.562;2022-07-21T06:21:42;15.25;;;13.88;;
36585;SDS011;22591;48.314;11.562;2022-07-21T06:24:07;15.13;;;13.80;;
36585;SDS011;22591;48.314;11.562;2022-07-21T06:26:33;15.07;;;13.75;;
36585;SDS011;22591;48.314;11.562;2022-07-21T06:28:59;14.18;;;12.77;;
36585;SDS011;22591;48.314;11.562;2022-07-21T06:31:25;16.42;;;14.70;;
36585;SDS011;22591;48.314;11.562;2022-07-21T06:33:50;15.80;;;14.43;;
36585;SDS011;22591;48.314;11.562;2022-07-21T06:36:16;15.20;;;13.82;;
36585;SDS011;22591;48.314;11.562;2022-07-21T06:38:42;15.27;;;13.63;;
36585;SDS011;22591;48.314;11.562;2022-07-21T06:41:09;14.93;;;13.50;;
36585;SDS011;22591;48.314;11.562;2022-07-21T06:43:35;14.65;;;13.25;;
36585;SDS011;22591;48.314;11.562;2022-07-21T06:46:01;15.15;;;13.15;;
36585;SDS011;22591;48.314;11.562;2022-07-21T06:48:26;14.70;;;13.35;;
36585;SDS011;22591;48.314;11.562;2022-07-21T06:50:52;14.98;;;13.38;;
36585;SDS011;22591;48.314;11.562;2022-07-21T06:53:19;15.00;;;13.70;;
36585;SDS011;22591;48.314;11.562;2022-07-21T06:55:45;13.70;;;12.40;;
36585;SDS011;22591;48.314;11.562;2022-07-21T06:58:15;13.98;;;12.70;;
36585;SDS011;22591;48.314;11.562;2022-07-21T07:00:42;13.80;;;12.60;;
36585;SDS011;22591;48.314;11.562;2022-07-21T07:03:09;14.02;;;12.80;;
36585;SDS011;22591;48.314;11.562;2022-07-21T07:05:34;14.63;;;12.95;;
36585;SDS011;22591;48.314;11.562;2022-07-21T07:08:01;13.98;;;12.77;;
36585;SDS011;22591;48.314;11.562;2022-07-21T07:10:27;18.20;;;13.50;;
36585;SDS011;22591;48.314;11.562;2022-07-21T07:12:53;13.85;;;12.45;;
36585;SDS011;22591;48.314;11.562;2022-07-21T07:15:19;14.45;;;12.57;;
36585;SDS011;22591;48.314;11.562;2022-07-21T07:17:45;15.00;;;13.55;;
36585;SDS011;22591;48.314;11.562;2022-07-21T07:20:11;13.95;;;12.60;;
36585;SDS011;22591;48.314;11.562;2022-07-21T07:22:36;15.55;;;14.05;;
36585;SDS011;22591;48.314;11.562;2022-07-21T07:25:03;15.45;;;13.85;;
36585;SDS011;22591;48.314;11.562;2022-07-21T07:27:29;14.75;;;13.45;;
36585;SDS011;22591;48.314;11.562;2022-07-21T07:29:55;15.60;;;14.00;;
36585;SDS011;22591;48.314;11.562;2022-07-21T07:32:20;9.27;;;8.20;;
36585;SDS011;22591;48.314;11.562;2022-07-21T07:34:46;18.73;;;9.32;;
36585;SDS011;22591;48.314;11.562;2022-07-21T07:37:12;12.55;;;8.65;;
36585;SDS011;22591;48.314;11.562;2022-07-21T07:39:37;10.98;;;9.23;;
36585;SDS011;22591;48.314;11.562;2022-07-21T07:42:04;11.07;;;8.77;;
36585;SDS011;22591;48.314;11.562;2022-07-21T07:44:30;9.60;;;8.18;;
36585;SDS011;22591;48.314;11.562;2022-07-21T07:46:56;9.68;;;8.45;;
36585;SDS011;22591;48.314;11.562;2022-07-21T07:49:21;9.90;;;8.90;;
36585;SDS011;22591;48.314;11.562;2022-07-21T07:51:47;9.00;;;7.88;;
36585;SDS011;22591;48.314;11.562;2022-07-21T07:54:13;12.23;;;8.60;;
36585;SDS011;22591;48.314;11.562;2022-07-21T07:56:39;8.55;;;7.68;;
36585;SDS011;22591;48.314;11.562;2022-07-21T07:59:05;9.23;;;8.10;;
36585;SDS011;22591;48.314;11.562;2022-07-21T08:01:31;9.40;;;8.05;;
36585;SDS011;22591;48.314;11.562;2022-07-21T08:03:56;10.35;;;8.13;;
36585;SDS011;22591;48.314;11.562;2022-07-21T08:06:22;10.57;;;8.55;;
36585;SDS011;22591;48.314;11.562;2022-07-21T08:08:47;9.40;;;8.40;;
36585;SDS011;22591;48.314;11.562;2022-07-21T08:11:13;12.13;;;8.65;;
36585;SDS011;22591;48.314;11.562;2022-07-21T08:13:40;12.40;;;8.55;;
36585;SDS011;22591;48.314;11.562;2022-07-21T08:16:06;9.85;;;8.00;;
36585;SDS011;22591;48.314;11.562;2022-07-21T08:18:32;10.40;;;8.52;;
36585;SDS011;22591;48.314;11.562;2022-07-21T08:20:58;11.68;;;7.70;;
36585;SDS011;22591;48.314;11.562;2022-07-21T08:23:23;8.98;;;8.05;;
36585;SDS011;22591;48.314;11.562;2022-07-21T08:25:49;8.23;;;7.43;;
36585;SDS011;22591;48.314;11.562;2022-07-21T08:28:14;8.27;;;6.85;;
36585;SDS011;22591;48.314;11.562;2022-07-21T08:30:40;12.43;;;6.88;;
36585;SDS011;22591;48.314;11.562;2022-07-21T08:33:07;8.02;;;7.22;;
36585;SDS011;22591;48.314;11.562;2022-07-21T08:35:33;8.50;;;7.68;;
36585;SDS011;22591;48.314;11.562;2022-07-21T08:38:00;10.63;;;7.57;;
36585;SDS011;22591;48.314;11.562;2022-07-21T08:40:32;8.30;;;7.45;;
36585;SDS011;22591;48.314;11.562;2022-07-21T08:43:00;11.52;;;7.75;;
36585;SDS011;22591;48.314;11.562;2022-07-21T08:45:26;9.95;;;8.48;;
36585;SDS011;22591;48.314;11.562;2022-07-21T08:47:53;8.82;;;7.50;;
36585;SDS011;22591;48.314;11.562;2022-07-21T08:50:21;11.43;;;7.70;;
36585;SDS011;22591;48.314;11.562;2022-07-21T08:52:48;8.25;;;7.07;;
36585;SDS011;22591;48.314;11.562;2022-07-21T08:55:14;10.20;;;8.10;;
36585;SDS011;22591;48.314;11.562;2022-07-21T08:57:40;10.07;;;7.97;;
36585;SDS011;22591;48.314;11.562;2022-07-21T09:00:08;10.55;;;8.15;;
36585;SDS011;22591;48.314;11.562;2022-07-21T09:02:35;9.02;;;7.47;;
36585;SDS011;22591;48.314;11.562;2022-07-21T09:05:02;13.75;;;7.72;;
36585;SDS011;22591;48.314;11.562;2022-07-21T09:07:46;8.25;;;7.45;;
36585;SDS011;22591;48.314;11.562;2022-07-21T09:10:13;8.15;;;7.35;;
36585;SDS011;22591;48.314;11.562;2022-07-21T09:12:52;11.55;;;7.70;;
36585;SDS011;22591;48.314;11.562;2022-07-21T09:15:19;9.82;;;8.85;;
36585;SDS011;22591;48.314;11.562;2022-07-21T09:18:02;11.35;;;7.63;;
36585;SDS011;22591;48.314;11.562;2022-07-21T09:20:51;10.45;;;7.88;;
36585;SDS011;22591;48.314;11.562;2022-07-21T09:23:19;6.97;;;6.28;;
36585;SDS011;22591;48.314;11.562;2022-07-21T09:25:47;13.00;;;7.30;;
36585;SDS011;22591;48.314;11.562;2022-07-21T09:28:16;8.23;;;7.07;;
36585;SDS011;22591;48.314;11.562;2022-07-21T09:30:50;8.02;;;7.22;;
36585;SDS011;22591;48.314;11.562;2022-07-21T09:38:35;8.50;;;7.60;;
36585;SDS011;22591;48.314;11.562;2022-07-21T09:41:03;7.50;;;6.72;;
36585;SDS011;22591;48.314;11.562;2022-07-21T09:46:26;8.18;;;7.28;;
36585;SDS011;22591;48.314;11.562;2022-07-21T09:48:55;8.00;;;7.28;;
36585;SDS011;22591;48.314;11.562;2022-07-21T09:51:24;11.88;;;8.05;;
36585;SDS011;22591;48.314;11.562;2022-07-21T09:56:20;7.22;;;6.63;;
36585;SDS011;22591;48.314;11.562;2022-07-21T09:58:49;12.63;;;8.05;;
36585;SDS011;22591;48.314;11.562;2022-07-21T10:01:17;13.32;;;7.45;;
36585;SDS011;22591;48.314;11.562;2022-07-21T10:03:46;9.48;;;7.95;;
36585;SDS011;22591;48.314;11.562;2022-07-21T10:06:14;9.93;;;8.05;;
36585;SDS011;22591;48.314;11.562;2022-07-21T10:08:41;8.07;;;7.28;;
36585;SDS011;22591;48.314;11.562;2022-07-21T10:11:09;12.10;;;7.13;;
36585;SDS011;22591;48.314;11.562;2022-07-21T10:13:35;9.13;;;8.07;;
36585;SDS011;22591;48.314;11.562;2022-07-21T10:16:01;10.60;;;7.20;;
36585;SDS011;22591;48.314;11.562;2022-07-21T10:18:30;19.90;;;9.50;;
36585;SDS011;22591;48.314;11.562;2022-07-21T10:21:45;19.30;;;17.33;;
36585;SDS011;22591;48.314;11.562;2022-07-21T10:23:59;19.60;;;17.60;;
36585;SDS011;22591;48.314;11.562;2022-07-21T10:26:25;19.60;;;17.55;;
36585;SDS011;22591;48.314;11.562;2022-07-21T10:28:51;18.15;;;16.45;;
36585;SDS011;22591;48.314;11.562;2022-07-21T10:31:24;18.35;;;16.55;;
36585;SDS011;22591;48.314;11.562;2022-07-21T10:33:53;17.42;;;15.68;;
36585;SDS011;22591;48.314;11.562;2022-07-21T10:39:11;18.15;;;16.45;;
36585;SDS011;22591;48.314;11.562;2022-07-21T10:41:48;17.00;;;15.32;;
36585;SDS011;22591;48.314;11.562;2022-07-21T10:46:58;18.45;;;16.52;;
36585;SDS011;22591;48.314;11.562;2022-07-21T11:00:51;18.00;;;16.30;;
36585;SDS011;22591;48.314;11.562;2022-07-21T11:03:32;16.77;;;15.35;;
36585;SDS011;22591;48.314;11.562;2022-07-21T11:08:39;19.00;;;16.95;;
36585;SDS011;22591;48.314;11.562;2022-07-21T11:11:10;19.00;;;15.45;;
36585;SDS011;22591;48.314;11.562;2022-07-21T11:13:57;16.27;;;14.98;;
36585;SDS011;22591;48.314;11.562;2022-07-21T11:22:02;16.80;;;15.40;;
36585;SDS011;22591;48.314;11.562;2022-07-21T11:24:36;15.70;;;14.43;;
36585;SDS011;22591;48.314;11.562;2022-07-21T11:27:06;14.38;;;13.27;;
36585;SDS011;22591;48.314;11.562;2022-07-21T11:29:35;16.05;;;14.45;;
36585;SDS011;22591;48.314;11.562;2022-07-21T11:32:02;16.75;;;15.18;;
36585;SDS011;22591;48.314;11.562;2022-07-21T11:34:43;17.98;;;16.40;;
36585;SDS011;22591;48.314;11.562;2022-07-21T11:37:17;16.60;;;15.15;;
36585;SDS011;22591;48.314;11.562;2022-07-21T11:39:52;16.10;;;14.60;;
36585;SDS011;22591;48.314;11.562;2022-07-21T11:42:18;16.42;;;14.88;;
36585;SDS011;22591;48.314;11.562;2022-07-21T11:44:45;15.32;;;14.05;;
36585;SDS011;22591;48.314;11.562;2022-07-21T11:47:12;14.90;;;13.60;;
36585;SDS011;22591;48.314;11.562;2022-07-21T11:49:39;15.35;;;14.02;;
36585;SDS011;22591;48.314;11.562;2022-07-21T11:52:10;17.13;;;15.50;;
36585;SDS011;22591;48.314;11.562;2022-07-21T11:54:45;16.90;;;15.18;;
36585;SDS011;22591;48.314;11.562;2022-07-21T11:57:13;15.27;;;13.98;;
36585;SDS011;22591;48.314;11.562;2022-07-21T11:59:41;15.98;;;14.50;;
36585;SDS011;22591;48.314;11.562;2022-07-21T12:02:09;14.77;;;13.55;;
36585;SDS011;22591;48.314;11.562;2022-07-21T12:04:43;14.38;;;12.80;;
36585;SDS011;22591;48.314;11.562;2022-07-21T12:07:12;15.73;;;14.25;;
36585;SDS011;22591;48.314;11.562;2022-07-21T12:09:45;15.80;;;14.30;;
36585;SDS011;22591;48.314;11.562;2022-07-21T12:12:12;14.68;;;13.23;;
36585;SDS011;22591;48.314;11.562;2022-07-21T12:17:12;14.50;;;13.20;;
36585;SDS011;22591;48.314;11.562;2022-07-21T12:19:39;13.25;;;12.07;;
36585;SDS011;22591;48.314;11.562;2022-07-21T12:22:04;13.93;;;12.63;;
36585;SDS011;22591;48.314;11.562;2022-07-21T12:24:47;15.50;;;14.10;;
36585;SDS011;22591;48.314;11.562;2022-07-21T12:27:16;17.05;;;13.68;;
36585;SDS011;22591;48.314;11.562;2022-07-21T12:29:42;14.60;;;13.10;;
36585;SDS011;22591;48.314;11.562;2022-07-21T12:32:07;13.57;;;12.48;;
36585;SDS011;22591;48.314;11.562;2022-07-21T12:34:33;16.05;;;14.52;;
36585;SDS011;22591;48.314;11.562;2022-07-21T12:37:16;14.73;;;13.32;;
36585;SDS011;22591;48.314;11.562;2022-07-21T12:39:42;16.10;;;11.27;;
36585;SDS011;22591;48.314;11.562;2022-07-21T12:42:32;14.10;;;13.15;;
36585;SDS011;22591;48.314;11.562;2022-07-21T12:45:16;18.63;;;17.00;;
36585;SDS011;22591;48.314;11.562;2022-07-21T12:47:43;13.27;;;12.18;;
36585;SDS011;22591;48.314;11.562;2022-07-21T12:50:29;27.58;;;24.92;;
36585;SDS011;22591;48.314;11.562;2022-07-21T12:52:54;41.22;;;38.63;;
36585;SDS011;22591;48.314;11.562;2022-07-21T12:55:20;60.42;;;57.00;;
36585;SDS011;22591;48.314;11.562;2022-07-21T12:57:46;145.38;;;138.00;;
36585;SDS011;22591;48.314;11.562;2022-07-21T13:00:12;573.40;;;538.30;;
36585;SDS011;22591;48.314;11.562;2022-07-21T13:02:47;481.58;;;454.92;;
36585;SDS011;22591;48.314;11.562;2022-07-21T13:05:15;13.25;;;12.35;;
36585;SDS011;22591;48.314;11.562;2022-07-21T13:07:40;16.45;;;15.02;;
36585;SDS011;22591;48.314;11.562;2022-07-21T13:10:06;29.08;;;27.23;;
36585;SDS011;22591;48.314;11.562;2022-07-21T13:12:32;39.83;;;37.42;;
36585;SDS011;22591;48.314;11.562;2022-07-21T13:14:57;91.00;;;85.47;;
36585;SDS011;22591;48.314;11.562;2022-07-21T13:17:23;105.45;;;96.90;;
36585;SDS011;22591;48.314;11.562;2022-07-21T13:19:49;61.72;;;58.08;;
36585;SDS011;22591;48.314;11.562;2022-07-21T13:22:14;294.33;;;277.30;;
36585;SDS011;22591;48.314;11.562;2022-07-21T13:24:40;146.60;;;139.35;;
36585;SDS011;22591;48.314;11.562;2022-07-21T13:27:05;252.10;;;238.85;;
36585;SDS011;22591;48.314;11.562;2022-07-21T13:29:31;300.08;;;285.33;;
36585;SDS011;22591;48.314;11.562;2022-07-21T13:31:57;333.17;;;315.70;;
36585;SDS011;22591;48.314;11.562;2022-07-21T13:34:22;287.80;;;273.75;;
36585;SDS011;22591;48.314;11.562;2022-07-21T13:36:48;356.30;;;337.65;;
36585;SDS011;22591;48.314;11.562;2022-07-21T13:39:13;1999.90;;;999.90;;
36585;SDS011;22591;48.314;11.562;2022-07-21T13:41:39;1999.90;;;999.90;;
36585;SDS011;22591;48.314;11.562;2022-07-21T13:44:05;1999.90;;;999.90;;
36585;SDS011;22591;48.314;11.562;2022-07-21T13:46:31;1999.90;;;999.90;;
36585;SDS011;22591;48.314;11.562;2022-07-21T13:48:57;1999.90;;;999.90;;
36585;SDS011;22591;48.314;11.562;2022-07-21T13:51:22;1999.90;;;999.90;;
36585;SDS011;22591;48.314;11.562;2022-07-21T13:53:49;1999.90;;;999.90;;
36585;SDS011;22591;48.314;11.562;2022-07-21T13:56:16;1999.90;;;999.90;;
36585;SDS011;22591;48.314;11.562;2022-07-21T13:58:43;1999.90;;;999.90;;
36585;SDS011;22591;48.314;11.562;2022-07-21T14:01:10;1999.90;;;999.90;;
36585;SDS011;22591;48.314;11.562;2022-07-21T14:03:37;1999.90;;;999.90;;
36585;SDS011;22591;48.314;11.562;2022-07-21T14:06:03;1999.90;;;999.90;;
36585;SDS011;22591;48.314;11.562;2022-07-21T14:08:29;1999.90;;;999.90;;
36585;SDS011;22591;48.314;11.562;2022-07-21T14:10:55;1999.90;;;999.90;;
36585;SDS011;22591;48.314;11.562;2022-07-21T14:13:20;1999.90;;;999.90;;
36585;SDS011;22591;48.314;11.562;2022-07-21T14:15:46;1999.90;;;999.90;;
36585;SDS011;22591;48.314;11.562;2022-07-21T14:18:13;1999.90;;;999.90;;
36585;SDS011;22591;48.314;11.562;2022-07-21T14:20:41;1999.90;;;999.90;;
36585;SDS011;22591;48.314;11.562;2022-07-21T14:23:08;1999.90;;;999.90;;
36585;SDS011;22591;48.314;11.562;2022-07-21T14:25:33;1999.90;;;999.90;;
36585;SDS011;22591;48.314;11.562;2022-07-21T14:27:59;1999.90;;;999.90;;
36585;SDS011;22591;48.314;11.562;2022-07-21T14:30:25;1999.90;;;999.90;;
36585;SDS011;22591;48.314;11.562;2022-07-21T14:32:52;1999.90;;;999.90;;
36585;SDS011;22591;48.314;11.562;2022-07-21T14:35:19;1999.90;;;999.90;;
36585;SDS011;22591;48.314;11.562;2022-07-21T14:37:49;1999.90;;;999.90;;
36585;SDS011;22591;48.314;11.562;2022-07-21T14:40:16;1999.90;;;999.90;;
36585;SDS011;22591;48.314;11.562;2022-07-21T14:42:45;1999.90;;;999.90;;
36585;SDS011;22591;48.314;11.562;2022-07-21T14:45:12;1999.90;;;999.90;;
36585;SDS011;22591;48.314;11.562;2022-07-21T14:47:38;1999.90;;;999.90;;
36585;SDS011;22591;48.314;11.562;2022-07-21T14:50:04;1999.90;;;999.90;;
36585;SDS011;22591;48.314;11.562;2022-07-21T14:52:30;1999.90;;;999.90;;
36585;SDS011;22591;48.314;11.562;2022-07-21T14:54:55;1999.90;;;999.90;;
36585;SDS011;22591;48.314;11.562;2022-07-21T14:57:21;1999.90;;;999.90;;